Current Conditions - Area Ports

 

CYWH - Victoria Harbour, British Columbia, Canada
Distance from station: WSW 10km
Updated: 08/20/2019 5:00pm
Overcast
Overcast
 Wind from SW
Wind: SW 6 km/h
Temperature: 15°C
Dew Point: 13°C
Humidity: 88%
Barometer: 1012.2 hPa
Clouds: Overcast
Visibility: 24 km
Cloud details: Partly cloudy 4267 m
Overcast 7315 m
2019/08/21 00:00 CYWH 210000Z 23003KT 15SM SCT140 OVC240 15/13 A2989 RMK AC4CI4 SLP123 DENSITY ALT 100FT
KFHR - Friday Harbor, Washington, USA
Distance from station: ENE 19km
Updated: 08/20/2019 4:53pm
Clear
Clear
 Wind from SW
Wind: SW 11 km/h
Temperature: 21°C
Dew Point: 11°C
Humidity: 53%
Barometer: 1012.5 hPa
Clouds: Clear
Visibility: 16 km
2019/08/20 23:53 KFHR 202353Z AUTO 23006KT 10SM CLR 21/11 A2990 RMK AO2 SLP124 T02060111 10239 20189 56010
 
KORS - Eastsound/Orcas, Washington, USA
Distance from station: NE 38km
Updated: 08/20/2019 5:35pm
Clear
Clear
 Wind from NNE
Wind: NNE 6 km/h
Temperature: 20°C
Dew Point: 13°C
Humidity: 64%
Barometer: 1011.5 hPa
Clouds: Clear
Visibility: 16 km
2019/08/21 00:35 KORS 210035Z AUTO 02003KT 10SM CLR 20/13 A2987 RMK AO2
KNUW - Whidbey Is. Nas, Washington, USA
Distance from station: ESE 47km
Updated: 08/20/2019 4:56pm
Mostly cloudy
Mostly cloudy
 Wind from W
Wind: W 9 km/h
Temperature: 19°C
Dew Point: 11°C
Humidity: 60%
Barometer: 1013.2 hPa
Clouds: Mostly cloudy
Visibility: 16 km
Cloud details: Partly cloudy 2438 m
Mostly cloudy 5486 m
Mostly cloudy 7620 m
2019/08/20 23:56 KNUW 202356Z 27005KT 10SM SCT080 BKN180 BKN250 19/11 A2992 RMK AO2 SLP132 T01940111 10228 20178 56010 $
 
CWEZ - Saturna Isl (map, British Columbia, Canada
Distance from station: NNE 40km
Updated: 08/20/2019 5:00pm

 
Temperature: 20°C
Dew Point: 12°C
Humidity: 60%
2019/08/21 00:00 CWEZ 210000Z AUTO 20/12 RMK AO1 SLP114 T01980117 56014
CYCD - Nanaimo Airport, British Columbia, Canada
Distance from station: NW 80km
Updated: 08/20/2019 5:00pm
Overcast
Overcast
 Wind from ENE
Wind: ENE 4 km/h
Temperature: 22°C
Dew Point: 13°C
Humidity: 57%
Barometer: 1011.5 hPa
Clouds: Overcast
Visibility: 48 km
Cloud details: Partly cloudy 5486 m
Overcast 7010 m
2019/08/21 00:00 CYCD 210000Z 07002KT 30SM SCT180 OVC230 22/13 A2987 RMK AC4CI4 SLP115 DENSITY ALT 1000FT
 
CWVF - Sand Heads (ls), British Columbia, Canada
Distance from station: N 72km
Updated: 07/20/2019 6:00pm
NOT Current

 Wind from WSW
Wind: WSW 6 km/h
Temperature: 19°C
Dew Point: 15°C
Humidity: 78%
2019/07/21 01:00 CWVF 210100Z AUTO 24003KT 19/15 RMK AO1 T01880151
CWQK - Race Rocks Autob, British Columbia, Canada
Distance from station: SW 26km
Updated: 08/20/2019 5:00pm

 Wind from W
Wind: W 28 km/h
Temperature: 15°C
Dew Point: 11°C
Humidity: 77%
2019/08/21 00:00 CWQK 210000Z AUTO 27015KT 15/11 RMK AO1 PK WND 27017/2355 SLP123 T01540113 58010
 
CWSP - Sheringham Autob, British Columbia, Canada
Distance from station: W 49km
Updated: 08/21/2019 3:00pm

 Wind from W
Wind: W 13 km/h
Temperature: 14°C
2019/08/21 22:00 CWSP 212200Z AUTO 28007KT 14/ RMK AO1 SLP130 T0142 56010